Cardwell, MO (63829)

6:49 PM CDT on September 23, 2014 (GMT -0500)
William White Subdivision | Change Station
CLOSE
Current Station
Personal Weather Station
Location: Paragould, AR
Elevation: 331 ft
Nearby Weather Stations

Elev 331 ft 36.05 °N, 90.50 °W | Updated 5 seconds ago

Clear
Clear
71.2 °F
Feels Like 77 °F
N
0.0
Wind Variable Wind from WSW
Gusts 0.0 mph

Today
High -- | Low -- °F
--% Chance of Precip.
Yesterday
High -- | Low -- °F
Precip. -- in
6:49 AM 6:56 PM
Waning Crescent, 0% visible
Pressure 30.16 in
Visibility 10.0 miles
Clouds Clear
Heat Index 77 °F
Dew Point 52 °F
Humidity 51%
Rainfall 0.00 in
Snow Depth Not available.
UV 1 out of 12
Pollen 7.40 out of 12
Air Quality Not available.
Flu Activity Not available.
METAR KJBR 232253Z AUTO 06009KT 10SM CLR 24/07 A3017 RMK AO2 SLP213 T02440067

More Conditions Fewer Conditions

Pressure 30.16 in
Visibility 10.0 miles
Clouds Clear
Heat Index 77 °F
Dew Point 52 °F
Humidity 51%
Rainfall 0.00 in
Snow Depth Not available.
UV 1 out of 12
Pollen 7.40 out of 12
Air Quality Not available.
Flu Activity Not available.
METAR KJBR 232253Z AUTO 06009KT 10SM CLR 24/07 A3017 RMK AO2 SLP213 T02440067

More Conditions Fewer Conditions

10-Day Weather Forecast

Almanac

Astronomy

Sep. 23, 2014 Rise Set
Actual Time 6:49 AM CDT 6:56 PM CDT
Civil Twilight 6:24 AM CDT 7:22 PM CDT
Nautical Twilight 5:54 AM CDT 7:51 PM CDT
Astronomical Twilight 5:24 AM CDT 8:22 PM CDT
Moon 6:14 AM CDT 6:35 PM CDT
Length of Visible Light 12h 57m
Length of Day
12h 06m
Tomorrow will be 2m 17s shorter.
Waning Crescent, 0% of the Moon is Illuminated
Today
Waning Crescent
Sep 24
New
Oct 1
First Quarter
Oct 8
Full
Oct 15
Last Quarter

Today's Extremes

State Highs State Lows

Community

WunderPhotos

Upload Photos

1,755,821 photos uploaded!

WunderBlogs® & News

Nearby

Snow Depth

Station Depth Elevation
No new snow has been reported.

Earthquake Activity

City Distance Mag. Time & Date
No recent earthquake activity has been reported nearby.
Minimum magnitude displayed is 2.5.

Coastal Water Temperatures

Place Temperature
No Stations Reporting

Nearby Weather Stations